Time;durP1;ratioP1;P1;durP2;ratioP2;P2;SDS_P1;SDS_P2;PMS_P1;PMS_P2;Temp;Humidity;BMP_temperature;BMP_pressure;BME280_temperature;BME280_humidity;BME280_pressure;Samples;Min_cycle;Max_cycle;Signal;HPM_P1;HPM_P2
2023/06/19 00:00:17;;;;;;;8.33;7.83;;;21.20;99.90;;;;;;4994849;28;21472;-59
2023/06/19 00:02:45;;;;;;;8.50;7.90;;;21.20;99.90;;;;;;4997946;28;21029;-60
2023/06/19 00:05:14;;;;;;;7.43;6.93;;;21.20;99.90;;;;;;4995744;28;20499;-60
2023/06/19 00:07:42;;;;;;;7.63;7.13;;;21.20;99.90;;;;;;4994823;28;20536;-60
2023/06/19 00:10:10;;;;;;;8.83;8.23;;;21.10;99.90;;;;;;4999085;28;20557;-59
2023/06/19 00:12:38;;;;;;;9.57;8.70;;;21.10;99.90;;;;;;4989033;28;20550;-60
2023/06/19 00:15:09;;;;;;;9.67;8.97;;;21.10;99.90;;;;;;4993664;28;21132;-60
2023/06/19 00:17:38;;;;;;;8.13;7.40;;;21.10;99.90;;;;;;4994490;28;20498;-59
2023/06/19 00:20:07;;;;;;;8.13;7.60;;;21.10;99.90;;;;;;4992017;28;20481;-60
2023/06/19 00:22:35;;;;;;;8.40;7.90;;;21.10;99.90;;;;;;4986080;28;20492;-59
2023/06/19 00:25:04;;;;;;;8.30;7.60;;;21.10;99.90;;;;;;4992674;28;20563;-59
2023/06/19 00:27:32;;;;;;;8.53;7.83;;;21.10;99.90;;;;;;4990562;28;20468;-59
2023/06/19 00:30:02;;;;;;;8.23;7.73;;;21.00;99.90;;;;;;4985463;28;20560;-60
2023/06/19 00:32:31;;;;;;;9.03;8.43;;;20.90;99.90;;;;;;4989930;28;20512;-59
2023/06/19 00:35:00;;;;;;;9.23;8.63;;;20.90;99.90;;;;;;4988794;28;20550;-60
2023/06/19 00:37:31;;;;;;;8.33;7.73;;;20.90;99.90;;;;;;4993275;28;20489;-59
2023/06/19 00:40:00;;;;;;;9.00;8.30;;;20.90;99.90;;;;;;4994615;28;20497;-60
2023/06/19 00:42:28;;;;;;;9.57;8.77;;;20.90;99.90;;;;;;4991987;28;20488;-60
2023/06/19 00:44:56;;;;;;;8.57;7.90;;;20.90;99.90;;;;;;4993014;28;21017;-60
2023/06/19 00:47:25;;;;;;;8.20;7.70;;;20.90;99.90;;;;;;4984836;28;20528;-60
2023/06/19 00:49:57;;;;;;;8.80;8.20;;;20.80;99.90;;;;;;4991272;28;20552;-60
2023/06/19 00:52:25;;;;;;;8.40;7.80;;;20.80;99.90;;;;;;4997365;28;20488;-59
2023/06/19 00:54:53;;;;;;;8.90;8.30;;;20.90;99.90;;;;;;4994546;28;20491;-60
2023/06/19 00:57:22;;;;;;;8.63;8.03;;;20.90;99.90;;;;;;4995414;28;20492;-61
2023/06/19 00:59:51;;;;;;;8.70;8.10;;;20.90;99.90;;;;;;4990139;28;20477;-60
2023/06/19 01:02:23;;;;;;;8.67;7.97;;;20.90;99.90;;;;;;4990404;28;20566;-59
2023/06/19 01:04:52;;;;;;;8.80;8.17;;;20.90;99.90;;;;;;4990201;28;20870;-60
2023/06/19 01:07:30;;;;;;;8.23;7.63;;;20.90;99.90;;;;;;4997143;28;20464;-59
2023/06/19 01:10:03;;;;;;;9.00;8.33;;;20.80;99.90;;;;;;4997660;28;20547;-61
2023/06/19 01:12:36;;;;;;;9.00;8.40;;;20.90;99.90;;;;;;5000005;28;20488;-61
2023/06/19 01:15:06;;;;;;;8.07;7.57;;;20.80;99.90;;;;;;4996404;28;20488;-65
2023/06/19 01:17:36;;;;;;;8.30;7.70;;;20.80;99.90;;;;;;4991919;28;20511;-59
2023/06/19 01:20:10;;;;;;;8.20;7.63;;;20.80;99.90;;;;;;4989772;28;20480;-59
2023/06/19 01:22:43;;;;;;;8.93;8.33;;;20.80;99.90;;;;;;4996313;28;20561;-59
2023/06/19 01:25:12;;;;;;;9.00;8.40;;;20.90;99.90;;;;;;4994550;28;20567;-60
2023/06/19 01:27:42;;;;;;;9.30;8.40;;;20.90;99.90;;;;;;4998791;28;20464;-59
2023/06/19 01:30:12;;;;;;;8.97;8.37;;;20.90;99.90;;;;;;4993652;28;20476;-59
2023/06/19 01:32:49;;;;;;;9.10;8.50;;;20.90;99.90;;;;;;4998611;28;20488;-59
2023/06/19 01:35:22;;;;;;;9.40;8.70;;;20.90;99.90;;;;;;5012619;28;20507;-59
2023/06/19 01:37:54;;;;;;;9.37;8.57;;;20.90;99.90;;;;;;5008468;28;20587;-60
2023/06/19 01:40:25;;;;;;;8.47;7.87;;;21.00;99.90;;;;;;4990996;28;20472;-60
2023/06/19 01:42:54;;;;;;;10.10;9.37;;;20.90;99.90;;;;;;4994464;28;21017;-61
2023/06/19 01:45:22;;;;;;;9.63;9.03;;;20.90;99.90;;;;;;4996125;28;20589;-60
2023/06/19 01:47:50;;;;;;;9.37;8.67;;;20.90;99.90;;;;;;4996316;28;20646;-60
2023/06/19 01:50:18;;;;;;;9.73;8.93;;;20.90;99.90;;;;;;4989936;28;20473;-59
2023/06/19 01:52:46;;;;;;;9.17;8.57;;;20.90;99.90;;;;;;4996183;28;20583;-60
2023/06/19 01:55:16;;;;;;;9.50;8.80;;;20.90;99.90;;;;;;4992879;28;21152;-60
2023/06/19 01:57:45;;;;;;;9.30;8.70;;;20.90;99.90;;;;;;4995395;28;20947;-60
2023/06/19 02:00:14;;;;;;;9.27;8.50;;;20.90;99.90;;;;;;4996360;28;20486;-60
2023/06/19 02:02:42;;;;;;;10.33;9.63;;;20.90;99.90;;;;;;4993427;28;20579;-60
2023/06/19 02:05:10;;;;;;;10.07;9.40;;;20.90;99.90;;;;;;4990520;28;20489;-60
2023/06/19 02:07:38;;;;;;;10.00;9.20;;;20.80;99.90;;;;;;4998292;28;20569;-59
2023/06/19 02:10:07;;;;;;;9.10;8.50;;;20.90;99.90;;;;;;4997536;28;20642;-60
2023/06/19 02:12:37;;;;;;;10.30;9.30;;;20.90;99.90;;;;;;4987727;28;20547;-61
2023/06/19 02:15:06;;;;;;;10.27;9.47;;;20.90;99.90;;;;;;4993251;28;20521;-60
2023/06/19 02:17:34;;;;;;;8.97;8.37;;;20.90;99.90;;;;;;4994877;28;20496;-59
2023/06/19 02:20:02;;;;;;;10.07;9.37;;;20.90;99.90;;;;;;4997648;28;20972;-59
2023/06/19 02:22:30;;;;;;;10.47;9.63;;;20.90;99.90;;;;;;4989889;28;20484;-63
2023/06/19 02:24:58;;;;;;;10.07;9.27;;;20.80;99.90;;;;;;4998653;28;20510;-60
2023/06/19 02:27:26;;;;;;;9.20;8.60;;;20.80;99.90;;;;;;4996267;28;20996;-60
2023/06/19 02:29:55;;;;;;;11.13;10.23;;;20.80;99.90;;;;;;4996996;28;21118;-60
2023/06/19 02:32:23;;;;;;;9.37;8.63;;;20.80;99.90;;;;;;4995689;28;20524;-59
2023/06/19 02:34:51;;;;;;;9.67;8.97;;;20.70;99.90;;;;;;4997107;28;20940;-59
2023/06/19 02:37:19;;;;;;;10.87;10.07;;;20.70;99.90;;;;;;4998405;28;21052;-59
2023/06/19 02:39:47;;;;;;;9.60;9.00;;;20.80;99.90;;;;;;4995838;28;20482;-60
2023/06/19 02:42:15;;;;;;;10.30;9.60;;;20.70;99.90;;;;;;4998229;28;20939;-59
2023/06/19 02:44:43;;;;;;;11.93;10.70;;;20.70;99.90;;;;;;4996449;28;20487;-59
2023/06/19 02:47:12;;;;;;;10.20;9.50;;;20.70;99.90;;;;;;4993067;28;20985;-60
2023/06/19 02:49:40;;;;;;;10.20;9.50;;;20.70;99.90;;;;;;4995426;28;21146;-59
2023/06/19 02:52:09;;;;;;;10.43;9.63;;;20.60;99.90;;;;;;4994938;28;20507;-59
2023/06/19 02:54:37;;;;;;;9.53;8.73;;;20.60;99.90;;;;;;4999240;28;20558;-59
2023/06/19 02:57:06;;;;;;;10.57;9.87;;;20.60;99.90;;;;;;4997769;28;20475;-59
2023/06/19 02:59:34;;;;;;;10.40;9.67;;;20.50;99.90;;;;;;4997870;28;20465;-59
2023/06/19 03:02:02;;;;;;;10.50;9.70;;;20.60;99.90;;;;;;4998649;28;20591;-60
2023/06/19 03:04:31;;;;;;;10.53;9.73;;;20.50;99.90;;;;;;5000058;28;20499;-59
2023/06/19 03:06:59;;;;;;;9.80;9.10;;;20.50;99.90;;;;;;4997347;28;20469;-60
2023/06/19 03:09:28;;;;;;;10.90;10.10;;;20.50;99.90;;;;;;5001154;28;20524;-60
2023/06/19 03:11:56;;;;;;;10.17;9.47;;;20.50;99.90;;;;;;4999073;28;20492;-60
2023/06/19 03:14:24;;;;;;;10.70;9.83;;;20.50;99.90;;;;;;5003572;28;20563;-59
2023/06/19 03:16:52;;;;;;;10.10;9.40;;;20.50;99.90;;;;;;4996316;28;20474;-59
2023/06/19 03:19:20;;;;;;;10.57;9.73;;;20.50;99.90;;;;;;5001561;28;20879;-59
2023/06/19 03:21:49;;;;;;;10.67;9.97;;;20.50;99.90;;;;;;4997765;28;20686;-60
2023/06/19 03:24:17;;;;;;;10.10;9.40;;;20.40;99.90;;;;;;4996372;28;20497;-59
2023/06/19 03:26:45;;;;;;;11.00;10.20;;;20.40;99.90;;;;;;4997348;28;20467;-59
2023/06/19 03:29:13;;;;;;;10.90;10.10;;;20.40;99.90;;;;;;4998138;28;20464;-59
2023/06/19 03:31:41;;;;;;;11.57;10.77;;;20.40;99.90;;;;;;4991052;28;20600;-60
2023/06/19 03:34:09;;;;;;;11.20;10.40;;;20.40;99.90;;;;;;5000382;28;20513;-59
2023/06/19 03:36:37;;;;;;;11.57;10.67;;;20.40;99.90;;;;;;4999511;28;20468;-60
2023/06/19 03:39:07;;;;;;;10.80;10.03;;;20.40;99.90;;;;;;4998187;28;20652;-65
2023/06/19 03:41:35;;;;;;;10.70;9.87;;;20.40;99.90;;;;;;4997015;28;20596;-60
2023/06/19 03:44:03;;;;;;;11.60;10.70;;;20.40;99.90;;;;;;4993663;28;20870;-59
2023/06/19 03:46:31;;;;;;;10.70;9.90;;;20.40;99.90;;;;;;4992051;28;20476;-60
2023/06/19 03:48:59;;;;;;;9.97;9.37;;;20.30;99.90;;;;;;4991128;28;20472;-59
2023/06/19 03:51:29;;;;;;;11.43;10.63;;;20.30;99.90;;;;;;4993474;28;20925;-60
2023/06/19 03:53:57;;;;;;;11.40;10.47;;;20.30;99.90;;;;;;4996386;28;20932;-59
2023/06/19 03:56:26;;;;;;;11.17;10.37;;;20.30;99.90;;;;;;4995863;28;20947;-59
2023/06/19 03:58:54;;;;;;;10.50;9.70;;;20.30;99.90;;;;;;4991175;28;20524;-60
2023/06/19 04:01:22;;;;;;;10.93;10.10;;;20.30;99.90;;;;;;4990891;28;20480;-59
2023/06/19 04:03:50;;;;;;;11.13;10.40;;;20.30;99.90;;;;;;4994421;28;20645;-64
2023/06/19 04:06:18;;;;;;;10.60;9.90;;;20.30;99.90;;;;;;4992773;28;20468;-60
2023/06/19 04:08:46;;;;;;;11.43;10.63;;;20.30;99.90;;;;;;4990620;28;20465;-57
2023/06/19 04:11:14;;;;;;;11.43;10.53;;;20.30;99.90;;;;;;4993070;28;20885;-58
2023/06/19 04:13:43;;;;;;;11.13;10.43;;;20.20;99.90;;;;;;4988863;28;20985;-60
2023/06/19 04:16:11;;;;;;;11.43;10.53;;;20.20;99.90;;;;;;4997613;28;20512;-58
2023/06/19 04:18:39;;;;;;;11.43;10.63;;;20.20;99.90;;;;;;4991004;28;20489;-58
2023/06/19 04:21:07;;;;;;;12.00;11.10;;;20.20;99.90;;;;;;4996586;28;20481;-58
2023/06/19 04:23:35;;;;;;;10.90;10.10;;;20.20;99.90;;;;;;5015364;28;20556;-57
2023/06/19 04:26:03;;;;;;;12.30;11.20;;;20.20;99.90;;;;;;5011469;28;20469;-58
2023/06/19 04:28:31;;;;;;;12.53;11.60;;;20.20;99.90;;;;;;4998607;28;20532;-58
2023/06/19 04:31:01;;;;;;;12.40;11.60;;;20.20;99.90;;;;;;4981696;28;20612;-58
2023/06/19 04:33:29;;;;;;;12.00;11.10;;;20.30;99.90;;;;;;4991302;28;20473;-57
2023/06/19 04:35:57;;;;;;;12.10;11.17;;;20.30;99.90;;;;;;4995348;28;20479;-58
2023/06/19 04:38:25;;;;;;;11.90;11.10;;;20.30;99.90;;;;;;4998553;28;20638;-57
2023/06/19 04:40:53;;;;;;;12.30;11.40;;;20.30;99.90;;;;;;4996590;28;21016;-57
2023/06/19 04:43:24;;;;;;;12.60;11.70;;;20.30;99.90;;;;;;4988571;28;20480;-57
2023/06/19 04:45:53;;;;;;;12.93;11.93;;;20.30;99.90;;;;;;4986536;28;20479;-57
2023/06/19 04:48:24;;;;;;;12.60;11.60;;;20.20;99.90;;;;;;4990255;28;20845;-57
2023/06/19 04:50:55;;;;;;;12.00;11.10;;;20.20;99.90;;;;;;4990434;28;20531;-58
2023/06/19 04:53:24;;;;;;;11.77;10.97;;;20.20;99.90;;;;;;4991260;28;20676;-58
2023/06/19 04:55:54;;;;;;;12.20;11.30;;;20.20;99.90;;;;;;4980701;28;20481;-57
2023/06/19 04:58:22;;;;;;;12.23;11.23;;;20.20;99.90;;;;;;4989847;28;20521;-57
2023/06/19 05:00:50;;;;;;;12.53;11.53;;;20.20;99.90;;;;;;5001356;28;20495;-58
2023/06/19 05:03:19;;;;;;;12.90;11.90;;;20.20;99.90;;;;;;4998624;28;20491;-58
2023/06/19 05:05:48;;;;;;;12.33;11.33;;;20.20;99.90;;;;;;5006088;28;20580;-58
2023/06/19 05:08:16;;;;;;;12.60;11.50;;;20.20;99.90;;;;;;5010152;28;20469;-60
2023/06/19 05:10:44;;;;;;;12.53;11.67;;;20.20;99.90;;;;;;5004310;28;20468;-57
2023/06/19 05:13:13;;;;;;;13.20;12.20;;;20.20;99.90;;;;;;5003729;28;20469;-57
2023/06/19 05:15:41;;;;;;;12.13;11.23;;;20.20;99.90;;;;;;4995219;28;20508;-57
2023/06/19 05:18:09;;;;;;;12.10;11.20;;;20.20;99.90;;;;;;4984702;28;23072;-58
2023/06/19 05:20:37;;;;;;;13.57;12.40;;;20.20;99.90;;;;;;4985707;28;20520;-58
2023/06/19 05:23:07;;;;;;;12.47;11.37;;;20.20;99.90;;;;;;4988901;28;20844;-58
2023/06/19 05:25:35;;;;;;;12.00;11.10;;;20.30;99.90;;;;;;4994109;28;20497;-58
2023/06/19 05:28:03;;;;;;;11.37;10.43;;;20.30;99.90;;;;;;4993426;28;20840;-57
2023/06/19 05:30:34;;;;;;;13.23;12.20;;;20.40;99.90;;;;;;4995031;28;20480;-58
2023/06/19 05:33:02;;;;;;;13.37;12.27;;;20.40;99.90;;;;;;4996837;28;20483;-58
2023/06/19 05:35:31;;;;;;;13.87;12.40;;;20.40;99.90;;;;;;4986775;28;20499;-58
2023/06/19 05:37:59;;;;;;;12.80;11.90;;;20.40;99.90;;;;;;4986824;28;21061;-57
2023/06/19 05:40:29;;;;;;;12.77;11.70;;;20.50;99.90;;;;;;4993644;28;20493;-57
2023/06/19 05:42:57;;;;;;;13.07;12.07;;;20.50;99.90;;;;;;4986364;28;20500;-57
2023/06/19 05:45:25;;;;;;;14.07;12.67;;;20.50;99.90;;;;;;4988582;28;21579;-57
2023/06/19 05:47:53;;;;;;;13.03;12.00;;;20.50;99.90;;;;;;4986725;28;21102;-57
2023/06/19 05:50:21;;;;;;;13.07;12.17;;;20.50;99.90;;;;;;4993751;28;20512;-58
2023/06/19 05:52:50;;;;;;;12.90;11.90;;;20.50;99.90;;;;;;4987109;28;21075;-58
2023/06/19 05:55:18;;;;;;;13.57;12.60;;;20.50;99.90;;;;;;4996890;28;20571;-58
2023/06/19 05:57:48;;;;;;;12.40;11.40;;;20.60;99.90;;;;;;4999283;28;20836;-58
2023/06/19 06:00:17;;;;;;;12.67;11.60;;;20.60;99.90;;;;;;4998067;28;24588;-57
2023/06/19 06:02:45;;;;;;;13.27;12.17;;;20.60;99.90;;;;;;4997870;28;20487;-58
2023/06/19 06:05:13;;;;;;;12.10;11.20;;;20.60;99.90;;;;;;4999377;28;20919;-57
2023/06/19 06:07:41;;;;;;;13.03;12.13;;;20.60;99.90;;;;;;4992471;28;20955;-58
2023/06/19 06:10:10;;;;;;;12.97;12.07;;;20.60;99.90;;;;;;4995847;28;20554;-57
2023/06/19 06:12:38;;;;;;;13.30;12.30;;;20.70;99.90;;;;;;4993414;28;20519;-57
2023/06/19 06:15:09;;;;;;;14.03;13.03;;;20.70;99.90;;;;;;4997481;28;20516;-57
2023/06/19 06:17:37;;;;;;;13.23;12.23;;;20.70;99.90;;;;;;4997772;28;20464;-58
2023/06/19 06:20:09;;;;;;;13.53;12.23;;;20.70;99.90;;;;;;4994599;28;20899;-57
2023/06/19 06:22:37;;;;;;;12.63;11.77;;;20.70;99.90;;;;;;4994758;28;20614;-57
2023/06/19 06:25:05;;;;;;;13.33;12.33;;;20.70;99.90;;;;;;4999379;28;21103;-57
2023/06/19 06:27:34;;;;;;;13.77;12.67;;;20.70;99.90;;;;;;4997448;28;20962;-57
2023/06/19 06:30:02;;;;;;;13.50;12.50;;;20.70;99.90;;;;;;4999023;28;20471;-58
2023/06/19 06:32:31;;;;;;;13.70;12.43;;;20.70;99.90;;;;;;4998300;28;20480;-58
2023/06/19 06:34:59;;;;;;;13.77;12.67;;;20.70;99.90;;;;;;4994578;28;20484;-57
2023/06/19 06:37:27;;;;;;;13.00;11.90;;;20.70;99.90;;;;;;4997821;28;20508;-58
2023/06/19 06:39:55;;;;;;;12.40;11.50;;;20.70;99.90;;;;;;4995556;28;20596;-57
2023/06/19 06:42:25;;;;;;;13.60;12.53;;;20.70;99.90;;;;;;4998138;28;20493;-58
2023/06/19 06:44:53;;;;;;;13.93;12.83;;;20.70;99.90;;;;;;4993519;28;20496;-57
2023/06/19 06:47:21;;;;;;;14.40;12.90;;;20.70;99.90;;;;;;4992572;28;20559;-57
2023/06/19 06:49:51;;;;;;;12.83;11.83;;;20.70;99.90;;;;;;4994822;28;20793;-58
2023/06/19 06:52:19;;;;;;;13.90;12.80;;;20.80;99.90;;;;;;4994641;28;20486;-57
2023/06/19 06:54:47;;;;;;;14.20;13.03;;;20.80;99.90;;;;;;4992817;28;20579;-58
2023/06/19 06:57:15;;;;;;;14.83;13.63;;;20.80;99.90;;;;;;4994990;28;20473;-58
2023/06/19 06:59:45;;;;;;;14.80;13.70;;;20.80;99.90;;;;;;4996993;28;20499;-58
2023/06/19 07:02:14;;;;;;;14.33;13.23;;;20.80;99.90;;;;;;4993567;28;20492;-58
2023/06/19 07:04:42;;;;;;;16.53;14.67;;;20.80;99.90;;;;;;4996012;28;20534;-58
2023/06/19 07:07:11;;;;;;;15.17;14.07;;;20.70;99.90;;;;;;4997816;28;20567;-58
2023/06/19 07:09:39;;;;;;;13.57;12.57;;;20.70;99.90;;;;;;4997936;28;20567;-57
2023/06/19 07:12:08;;;;;;;14.00;13.00;;;20.70;99.90;;;;;;5022344;28;20484;-57
2023/06/19 07:14:36;;;;;;;14.70;13.70;;;20.80;99.90;;;;;;5017415;28;20591;-57
2023/06/19 07:17:06;;;;;;;14.40;13.20;;;20.80;99.90;;;;;;4997053;28;20970;-58
2023/06/19 07:19:35;;;;;;;15.63;14.40;;;20.90;99.90;;;;;;4998563;28;20496;-58
2023/06/19 07:22:03;;;;;;;15.37;14.20;;;20.90;99.90;;;;;;4995371;28;20584;-58
2023/06/19 07:24:32;;;;;;;14.73;13.63;;;20.90;99.90;;;;;;5001661;28;20484;-58
2023/06/19 07:27:00;;;;;;;13.87;12.43;;;20.90;99.90;;;;;;4998722;28;22028;-58
2023/06/19 07:29:29;;;;;;;15.10;13.80;;;20.90;99.90;;;;;;4999953;28;20476;-58
2023/06/19 07:31:57;;;;;;;14.87;13.77;;;21.00;99.90;;;;;;4998681;28;21069;-58
2023/06/19 07:34:25;;;;;;;13.87;12.97;;;21.00;99.90;;;;;;4993819;28;20524;-58
2023/06/19 07:36:53;;;;;;;15.43;14.13;;;21.00;99.90;;;;;;4998562;28;20469;-58
2023/06/19 07:39:21;;;;;;;15.00;13.87;;;21.00;99.90;;;;;;4992428;28;20982;-58
2023/06/19 07:41:50;;;;;;;15.30;14.10;;;21.00;99.90;;;;;;4998555;28;20485;-57
2023/06/19 07:44:20;;;;;;;15.00;13.90;;;21.10;99.90;;;;;;4993280;28;20492;-57
2023/06/19 07:46:48;;;;;;;15.10;14.03;;;21.10;99.90;;;;;;4991304;28;20484;-58
2023/06/19 07:49:16;;;;;;;14.10;12.90;;;21.10;99.90;;;;;;4996667;28;20563;-57
2023/06/19 07:51:44;;;;;;;15.37;14.20;;;21.20;99.90;;;;;;4991629;28;20521;-62
2023/06/19 07:54:12;;;;;;;15.70;14.47;;;21.20;99.90;;;;;;4995337;28;20527;-60
2023/06/19 07:56:41;;;;;;;16.10;14.90;;;21.10;99.90;;;;;;4992743;28;20551;-60
2023/06/19 07:59:11;;;;;;;14.93;13.93;;;21.20;99.90;;;;;;4998178;28;20508;-60
2023/06/19 08:01:39;;;;;;;14.83;13.73;;;21.20;99.90;;;;;;4993461;28;20534;-59
2023/06/19 08:04:07;;;;;;;15.30;13.93;;;21.30;99.90;;;;;;4995162;28;21033;-59
2023/06/19 08:06:35;;;;;;;15.53;13.93;;;21.40;99.90;;;;;;4990817;28;20496;-60
2023/06/19 08:09:03;;;;;;;14.90;13.90;;;21.40;99.90;;;;;;4990467;28;20472;-58
2023/06/19 08:11:31;;;;;;;15.43;14.23;;;21.60;99.90;;;;;;4992025;28;20579;-58
2023/06/19 08:13:59;;;;;;;15.17;13.97;;;21.70;99.90;;;;;;4991253;28;20495;-59
2023/06/19 08:16:29;;;;;;;15.53;14.33;;;21.80;99.90;;;;;;4994023;28;20559;-59
2023/06/19 08:18:57;;;;;;;15.10;14.00;;;21.90;99.90;;;;;;4992218;28;20994;-59
2023/06/19 08:21:25;;;;;;;14.60;13.50;;;21.90;99.90;;;;;;4990524;28;20578;-59
2023/06/19 08:23:53;;;;;;;14.90;13.80;;;22.00;99.90;;;;;;4994679;28;20492;-57
2023/06/19 08:26:21;;;;;;;15.37;14.33;;;22.10;99.90;;;;;;4995262;28;20473;-57
2023/06/19 08:28:49;;;;;;;15.40;14.20;;;22.20;99.90;;;;;;4993327;28;20555;-57
2023/06/19 08:31:17;;;;;;;15.27;14.00;;;22.30;99.90;;;;;;4991989;28;20488;-57
2023/06/19 08:33:49;;;;;;;15.30;14.13;;;22.40;99.90;;;;;;4993360;28;20869;-57
2023/06/19 08:36:21;;;;;;;15.10;14.00;;;22.40;99.90;;;;;;4993947;28;20476;-57
2023/06/19 08:38:50;;;;;;;16.70;15.43;;;22.50;99.90;;;;;;4993161;28;21055;-59
2023/06/19 08:41:19;;;;;;;15.13;13.87;;;22.50;99.90;;;;;;4986021;28;21101;-59
2023/06/19 08:43:47;;;;;;;15.27;14.07;;;22.70;99.90;;;;;;4992506;28;20519;-59
2023/06/19 08:46:17;;;;;;;16.10;14.70;;;22.80;99.90;;;;;;4996401;28;20563;-57
2023/06/19 08:48:47;;;;;;;15.73;14.63;;;22.90;99.90;;;;;;5004740;28;20476;-59
2023/06/19 08:51:15;;;;;;;14.63;13.53;;;23.00;99.90;;;;;;4996506;28;20560;-59
2023/06/19 08:53:50;;;;;;;15.00;13.90;;;23.10;99.90;;;;;;4998636;28;20488;-59
2023/06/19 08:56:18;;;;;;;15.33;14.23;;;23.20;99.90;;;;;;4997184;28;20464;-60
2023/06/19 08:58:46;;;;;;;16.13;14.87;;;23.40;99.90;;;;;;4994335;28;20996;-60
2023/06/19 09:01:18;;;;;;;15.13;14.03;;;23.50;99.90;;;;;;4993530;28;20859;-60
2023/06/19 09:03:51;;;;;;;15.27;13.97;;;23.60;99.90;;;;;;4995144;28;20592;-60
2023/06/19 09:06:21;;;;;;;14.77;13.77;;;23.70;99.90;;;;;;4990366;28;20582;-59
2023/06/19 09:08:59;;;;;;;13.00;12.10;;;23.80;99.90;;;;;;4995209;28;20989;-59
2023/06/19 09:11:27;;;;;;;14.57;13.60;;;23.90;99.90;;;;;;4989374;28;20591;-60
2023/06/19 09:13:58;;;;;;;14.33;13.37;;;24.00;99.90;;;;;;4995910;28;20582;-61
2023/06/19 09:16:37;;;;;;;14.97;13.77;;;24.10;99.90;;;;;;4995520;28;20625;-61
2023/06/19 09:19:07;;;;;;;13.80;12.80;;;24.20;99.90;;;;;;4996622;28;20468;-60
2023/06/19 09:21:38;;;;;;;15.20;14.10;;;24.30;99.90;;;;;;4985739;28;20879;-60
2023/06/19 09:24:07;;;;;;;15.67;14.57;;;24.40;99.90;;;;;;4985502;28;20552;-60
2023/06/19 09:26:36;;;;;;;13.97;13.00;;;24.40;99.90;;;;;;4980480;28;20572;-59
2023/06/19 09:29:15;;;;;;;14.57;13.57;;;24.40;99.90;;;;;;4981199;28;20500;-59
2023/06/19 09:31:48;;;;;;;14.67;13.40;;;24.50;99.90;;;;;;4986452;28;20492;-61
2023/06/19 09:34:17;;;;;;;14.83;13.73;;;24.80;99.90;;;;;;4986759;28;20508;-59
2023/06/19 09:36:46;;;;;;;15.23;14.13;;;24.90;99.90;;;;;;4988857;28;20559;-59
2023/06/19 09:39:16;;;;;;;14.87;13.93;;;25.00;99.90;;;;;;4990546;28;20541;-59
2023/06/19 09:41:49;;;;;;;14.70;13.70;;;25.10;99.90;;;;;;4992489;28;20492;-59
2023/06/19 09:44:22;;;;;;;14.90;13.80;;;25.20;99.90;;;;;;4989882;28;20498;-59
2023/06/19 09:46:52;;;;;;;14.90;13.90;;;25.30;99.90;;;;;;4994138;28;20526;-57
2023/06/19 09:49:25;;;;;;;15.07;13.77;;;25.40;99.90;;;;;;4984841;28;20473;-59
2023/06/19 09:51:53;;;;;;;14.20;13.30;;;25.50;99.90;;;;;;4985936;28;21089;-59
2023/06/19 09:54:22;;;;;;;13.80;12.73;;;25.60;99.90;;;;;;4982625;28;20489;-59
2023/06/19 09:56:51;;;;;;;14.97;13.70;;;25.60;99.90;;;;;;4988837;28;20472;-60
2023/06/19 09:59:20;;;;;;;14.80;13.80;;;25.60;99.90;;;;;;4993703;28;20523;-60
2023/06/19 10:01:49;;;;;;;15.07;13.97;;;25.60;99.90;;;;;;4987136;28;21029;-59
2023/06/19 10:04:18;;;;;;;16.10;15.00;;;25.60;99.90;;;;;;4985671;28;20964;-59
2023/06/19 10:06:48;;;;;;;16.03;14.93;;;25.70;99.90;;;;;;4985521;28;20890;-59
2023/06/19 10:09:18;;;;;;;15.97;14.77;;;25.70;99.90;;;;;;4993839;28;21025;-59
2023/06/19 10:11:48;;;;;;;15.27;14.20;;;25.70;99.90;;;;;;4985089;28;20568;-61
2023/06/19 10:14:18;;;;;;;14.80;13.80;;;25.70;99.90;;;;;;4983517;28;21023;-57
2023/06/19 10:16:47;;;;;;;15.53;14.53;;;25.80;99.90;;;;;;4989568;28;21008;-58
2023/06/19 10:19:16;;;;;;;15.57;14.27;;;25.80;99.90;;;;;;4993980;28;20476;-58
2023/06/19 10:21:47;;;;;;;15.93;14.73;;;25.80;99.90;;;;;;4981220;28;21058;-57
2023/06/19 10:24:18;;;;;;;15.63;14.43;;;25.90;99.90;;;;;;4990378;28;20542;-57
2023/06/19 10:26:58;;;;;;;15.40;14.30;;;25.90;99.90;;;;;;4990349;28;20468;-57
2023/06/19 10:29:27;;;;;;;15.13;14.03;;;25.90;99.90;;;;;;4990382;28;20500;-59
2023/06/19 10:31:56;;;;;;;16.37;15.10;;;25.90;99.90;;;;;;4990535;28;20484;-60
2023/06/19 10:34:34;;;;;;;16.43;15.13;;;26.00;99.90;;;;;;4986639;28;20497;-60
2023/06/19 10:37:04;;;;;;;15.07;14.07;;;26.00;99.90;;;;;;4990944;28;20555;-59
2023/06/19 10:39:33;;;;;;;16.30;15.00;;;26.00;99.90;;;;;;4991311;28;20482;-59
2023/06/19 10:42:01;;;;;;;16.33;15.13;;;25.90;99.90;;;;;;4991720;28;20517;-59
2023/06/19 10:44:32;;;;;;;15.07;13.97;;;25.90;99.90;;;;;;4980811;28;20496;-59
2023/06/19 10:47:01;;;;;;;14.37;13.30;;;26.00;99.90;;;;;;4989354;28;21076;-59
2023/06/19 10:49:29;;;;;;;14.67;13.67;;;26.10;99.90;;;;;;4988428;28;20472;-59
2023/06/19 10:52:00;;;;;;;15.40;14.30;;;26.10;99.90;;;;;;4986246;28;20542;-59
2023/06/19 10:54:31;;;;;;;14.50;13.37;;;26.30;99.90;;;;;;4988756;28;20831;-60
2023/06/19 10:57:02;;;;;;;15.60;14.40;;;26.40;99.90;;;;;;4989288;28;21215;-60
2023/06/19 10:59:31;;;;;;;15.50;14.30;;;26.60;99.90;;;;;;4982375;28;20474;-59
2023/06/19 11:01:59;;;;;;;16.17;15.00;;;26.70;99.90;;;;;;4990855;28;20570;-60
2023/06/19 11:04:27;;;;;;;15.40;14.23;;;26.80;99.90;;;;;;4997369;28;20500;-59
2023/06/19 11:06:55;;;;;;;15.30;14.20;;;26.90;99.90;;;;;;4990465;28;20550;-59
2023/06/19 11:09:25;;;;;;;14.67;13.67;;;27.00;99.90;;;;;;4986966;28;20485;-60
2023/06/19 11:11:55;;;;;;;15.60;14.60;;;27.00;99.90;;;;;;4989511;28;20484;-57
2023/06/19 11:14:23;;;;;;;15.33;14.20;;;27.10;99.90;;;;;;4986971;28;20718;-57
2023/06/19 11:16:51;;;;;;;15.90;14.80;;;27.20;99.90;;;;;;4992673;28;20472;-57
2023/06/19 11:19:20;;;;;;;16.53;15.23;;;27.40;99.90;;;;;;4990824;28;20480;-57
2023/06/19 11:21:50;;;;;;;15.30;14.20;;;27.40;99.90;;;;;;4988970;28;20462;-57
2023/06/19 11:24:20;;;;;;;15.70;14.60;;;27.40;99.90;;;;;;4992151;28;20492;-57
2023/06/19 11:26:50;;;;;;;14.63;13.63;;;27.50;99.90;;;;;;4993119;28;20468;-57
2023/06/19 11:29:22;;;;;;;15.87;14.57;;;27.50;99.90;;;;;;4993807;28;20477;-57
2023/06/19 11:31:51;;;;;;;14.27;13.37;;;27.60;99.90;;;;;;4997128;28;21485;-59
2023/06/19 11:34:19;;;;;;;14.23;13.23;;;27.60;99.90;;;;;;4997186;28;20493;-57
2023/06/19 11:36:51;;;;;;;14.73;13.73;;;27.70;99.90;;;;;;4991689;28;20480;-56
2023/06/19 11:39:19;;;;;;;15.27;14.13;;;27.80;99.90;;;;;;4994163;28;21001;-57
2023/06/19 11:41:47;;;;;;;14.73;13.70;;;27.90;99.90;;;;;;4986398;28;21089;-56
2023/06/19 11:44:16;;;;;;;12.40;11.50;;;28.00;99.90;;;;;;4990935;28;20516;-56
2023/06/19 11:46:46;;;;;;;12.50;11.70;;;28.00;99.90;;;;;;4995182;28;20857;-57
2023/06/19 11:49:16;;;;;;;11.57;10.70;;;28.10;99.90;;;;;;4991269;28;20499;-56
2023/06/19 11:51:44;;;;;;;11.40;10.60;;;28.20;99.90;;;;;;4989526;28;20496;-57
2023/06/19 11:54:14;;;;;;;12.10;11.30;;;28.20;99.90;;;;;;4986308;28;20646;-57
2023/06/19 11:56:42;;;;;;;11.43;10.73;;;28.20;99.90;;;;;;4990231;28;20564;-57
2023/06/19 11:59:10;;;;;;;10.70;10.00;;;28.10;99.90;;;;;;4992115;28;20448;-57
2023/06/19 12:01:39;;;;;;;11.37;10.47;;;28.10;99.90;;;;;;4998063;28;21017;-56
2023/06/19 12:04:08;;;;;;;10.47;9.83;;;28.10;99.90;;;;;;4992110;28;20915;-57
2023/06/19 12:06:37;;;;;;;10.90;10.20;;;28.20;99.90;;;;;;4994425;28;20468;-57
2023/06/19 12:09:05;;;;;;;10.23;9.23;;;28.30;99.90;;;;;;4996550;28;20480;-57
2023/06/19 12:11:34;;;;;;;9.80;9.00;;;28.30;99.90;;;;;;4997510;28;20534;-56
2023/06/19 12:14:04;;;;;;;9.53;8.93;;;28.40;99.90;;;;;;4997773;28;20494;-56
2023/06/19 12:16:32;;;;;;;10.53;9.80;;;28.50;99.90;;;;;;4993502;28;20740;-59
2023/06/19 12:19:00;;;;;;;9.87;9.07;;;28.50;99.90;;;;;;4993939;28;20787;-56
2023/06/19 12:21:30;;;;;;;9.63;8.93;;;28.50;99.90;;;;;;4998355;28;20582;-57
2023/06/19 12:24:06;;;;;;;9.60;8.90;;;28.30;99.90;;;;;;4992926;28;20605;-57
2023/06/19 12:26:36;;;;;;;10.00;8.80;;;28.30;99.90;;;;;;4992370;28;20572;-56
2023/06/19 12:29:04;;;;;;;9.40;8.70;;;28.30;99.90;;;;;;4998700;28;20926;-57
2023/06/19 12:31:32;;;;;;;9.73;8.93;;;28.30;99.90;;;;;;4993690;28;20497;-57
2023/06/19 12:34:01;;;;;;;9.17;8.60;;;28.30;99.90;;;;;;4998454;28;20524;-58
2023/06/19 12:36:42;;;;;;;9.67;8.90;;;28.30;99.90;;;;;;4990577;28;20560;-57
2023/06/19 12:39:16;;;;;;;9.57;8.70;;;28.30;99.90;;;;;;4990585;28;20555;-59
2023/06/19 12:41:44;;;;;;;10.20;9.30;;;28.10;99.90;;;;;;4993292;28;20496;-59